Time;durP1;ratioP1;P1;durP2;ratioP2;P2;SDS_P1;SDS_P2;PMS_P1;PMS_P2;Temp;Humidity;BMP_temperature;BMP_pressure;BME280_temperature;BME280_humidity;BME280_pressure;Samples;Min_cycle;Max_cycle;Signal;HPM_P1;HPM_P2
2023/06/07 00:02:01;;;;;;;22.42;15.18;;;10.40;99.90;;;;;;21067128;28;20039;-46
2023/06/07 00:12:03;;;;;;;22.42;16.40;;;10.30;99.90;;;;;;21066712;28;20077;-49
2023/06/07 00:22:04;;;;;;;23.98;17.45;;;10.30;99.90;;;;;;21048135;28;20028;-52
2023/06/07 00:32:06;;;;;;;28.88;20.17;;;10.20;99.90;;;;;;21065585;28;20109;-49
2023/06/07 00:42:08;;;;;;;21.67;16.10;;;10.30;99.90;;;;;;21078888;28;20575;-48
2023/06/07 00:52:10;;;;;;;27.02;19.75;;;10.40;99.90;;;;;;21081776;28;20032;-45
2023/06/07 01:02:14;;;;;;;32.05;22.00;;;10.50;99.90;;;;;;21081040;28;20489;-48
2023/06/07 01:12:18;;;;;;;31.33;21.88;;;10.60;99.90;;;;;;21080028;28;20086;-44
2023/06/07 01:22:29;;;;;;;31.10;21.77;;;10.70;99.90;;;;;;21079321;28;20460;-48
2023/06/07 01:32:31;;;;;;;;;;;10.80;99.90;;;;;;21075078;28;20043;-51
2023/06/07 01:42:35;;;;;;;22.95;17.52;;;10.90;99.90;;;;;;21077768;28;20331;-46
2023/06/07 01:52:36;;;;;;;23.63;16.98;;;10.90;99.90;;;;;;21073065;28;20039;-50
2023/06/07 02:02:53;;;;;;;29.80;20.90;;;10.90;99.90;;;;;;21059284;28;20089;-47
2023/06/07 02:12:57;;;;;;;23.50;14.70;;;11.00;99.90;;;;;;21075688;28;20039;-46
2023/06/07 02:23:00;;;;;;;28.17;19.23;;;10.90;99.90;;;;;;21071008;28;20062;-45
2023/06/07 02:33:02;;;;;;;28.17;18.67;;;10.90;99.90;;;;;;21055557;28;20032;-44
2023/06/07 02:43:03;;;;;;;23.73;16.13;;;10.80;99.90;;;;;;21070108;28;20048;-45
2023/06/07 02:53:06;;;;;;;20.40;14.90;;;10.60;99.90;;;;;;21072433;28;20401;-45
2023/06/07 03:03:07;;;;;;;17.58;14.15;;;10.60;99.90;;;;;;21069978;28;20438;-45
2023/06/07 03:13:13;;;;;;;17.23;13.25;;;10.70;99.90;;;;;;21052213;28;20439;-45
2023/06/07 03:23:16;;;;;;;18.60;13.93;;;10.60;99.90;;;;;;21051815;28;20040;-46
2023/06/07 03:33:22;;;;;;;20.50;14.77;;;10.60;99.90;;;;;;21050692;28;20036;-44
2023/06/07 03:43:24;;;;;;;18.00;12.27;;;10.60;99.90;;;;;;21050136;28;20059;-47
2023/06/07 03:53:26;;;;;;;20.33;15.15;;;10.60;99.90;;;;;;21049717;28;20028;-53
2023/06/07 04:03:30;;;;;;;23.35;16.50;;;10.60;99.90;;;;;;21048925;28;20062;-47
2023/06/07 04:13:34;;;;;;;22.13;14.65;;;10.60;99.90;;;;;;21048419;28;20032;-45
2023/06/07 04:23:36;;;;;;;21.67;15.05;;;10.70;99.90;;;;;;21048061;28;20089;-46
2023/06/07 04:33:39;;;;;;;15.13;11.85;;;10.90;99.90;;;;;;21047328;28;20040;-47
2023/06/07 04:43:44;;;;;;;11.45;9.45;;;11.30;99.90;;;;;;21046972;28;20036;-47
2023/06/07 04:53:47;;;;;;;10.02;8.40;;;11.70;99.90;;;;;;21064859;28;20032;-48
2023/06/07 05:04:02;;;;;;;9.00;6.95;;;12.10;99.90;;;;;;21046509;28;20028;-43
2023/06/07 05:14:09;;;;;;;14.13;10.85;;;12.60;99.90;;;;;;21062470;28;20028;-45
2023/06/07 05:24:12;;;;;;;10.65;8.75;;;13.50;99.90;;;;;;21051936;28;20058;-48
2023/06/07 05:34:14;;;;;;;11.30;10.18;;;14.10;99.90;;;;;;21060610;28;20048;-47
2023/06/07 05:44:16;;;;;;;9.98;8.98;;;14.50;99.90;;;;;;21057855;28;20378;-46
2023/06/07 05:54:19;;;;;;;8.93;8.02;;;15.00;99.90;;;;;;21077207;28;20081;-50
2023/06/07 06:04:20;;;;;;;8.75;7.80;;;15.40;99.90;;;;;;21076083;28;20036;-53
2023/06/07 06:14:25;;;;;;;8.27;7.40;;;15.50;99.90;;;;;;21072517;28;20052;-51
2023/06/07 06:24:26;;;;;;;8.80;7.90;;;15.70;99.90;;;;;;21074512;28;20032;-48
2023/06/07 06:34:29;;;;;;;11.35;9.38;;;15.40;99.90;;;;;;21069588;28;20048;-52
2023/06/07 06:44:31;;;;;;;8.32;7.53;;;15.30;99.90;;;;;;21070291;28;20036;-49
2023/06/07 06:54:32;;;;;;;7.75;7.05;;;16.90;99.90;;;;;;21072404;28;20085;-51
2023/06/07 07:04:34;;;;;;;9.35;8.45;;;17.70;99.90;;;;;;21071164;28;20036;-49
2023/06/07 07:14:36;;;;;;;7.70;6.85;;;17.50;99.90;;;;;;21070583;28;20028;-50
2023/06/07 07:24:38;;;;;;;6.57;5.88;;;17.40;99.90;;;;;;21071195;28;20646;-50
2023/06/07 07:34:39;;;;;;;8.27;7.45;;;17.40;99.90;;;;;;21066633;28;20055;-48
2023/06/07 07:44:41;;;;;;;7.82;6.57;;;17.10;99.90;;;;;;21067763;28;20028;-55
2023/06/07 07:54:43;;;;;;;7.20;6.50;;;16.90;99.90;;;;;;21067947;28;20028;-51
2023/06/07 08:04:45;;;;;;;7.40;6.70;;;16.40;99.90;;;;;;21066834;28;20028;-45
2023/06/07 08:14:46;;;;;;;9.38;6.88;;;16.60;99.90;;;;;;21066600;28;20481;-55
2023/06/07 08:24:48;;;;;;;7.05;5.20;;;17.20;99.90;;;;;;21048552;28;20036;-49
2023/06/07 08:34:50;;;;;;;6.85;5.47;;;18.10;99.90;;;;;;21065442;28;20044;-53
2023/06/07 08:44:52;;;;;;;7.15;6.45;;;17.90;99.90;;;;;;21065180;28;20032;-48
2023/06/07 08:54:58;;;;;;;7.72;6.93;;;17.60;99.90;;;;;;21065842;28;20439;-45
2023/06/07 09:05:06;;;;;;;6.60;5.55;;;18.20;99.90;;;;;;21078718;28;20043;-49
2023/06/07 09:15:09;;;;;;;7.20;6.50;;;18.50;99.90;;;;;;21062469;28;20032;-46
2023/06/07 09:25:11;;;;;;;7.57;6.88;;;18.50;99.90;;;;;;21075610;28;20058;-51
2023/06/07 09:35:14;;;;;;;10.07;8.88;;;18.10;99.90;;;;;;21079187;28;20048;-54
2023/06/07 09:45:17;;;;;;;8.25;7.50;;;17.50;99.90;;;;;;21078244;28;20032;-46
2023/06/07 09:55:27;;;;;;;5.53;5.03;;;17.40;99.90;;;;;;21077355;28;20028;-54
2023/06/07 10:05:29;;;;;;;7.80;7.00;;;17.60;99.90;;;;;;21074818;28;20039;-52
2023/06/07 10:15:34;;;;;;;10.48;7.00;;;17.70;99.90;;;;;;21075487;28;20042;-45
2023/06/07 10:25:56;;;;;;;6.68;5.40;;;17.50;99.90;;;;;;21074995;28;20109;-55
2023/06/07 10:35:58;;;;;;;10.73;9.27;;;17.50;99.90;;;;;;21072392;28;20109;-55
2023/06/07 10:46:23;;;;;;;20.30;11.13;;;16.80;99.90;;;;;;21070510;28;20541;-52
2023/06/07 10:56:27;;;;;;;16.75;15.02;;;15.90;99.90;;;;;;21072550;28;20036;-49
2023/06/07 11:06:29;;;;;;;14.88;13.38;;;15.50;99.90;;;;;;21071739;28;20447;-44
2023/06/07 11:16:31;;;;;;;16.27;14.57;;;15.60;99.90;;;;;;21071105;28;20028;-50
2023/06/07 11:26:35;;;;;;;11.05;9.95;;;15.70;99.90;;;;;;21069472;28;20028;-42
2023/06/07 11:36:37;;;;;;;12.82;11.63;;;17.10;99.90;;;;;;21069507;28;20105;-48
2023/06/07 11:46:38;;;;;;;10.00;9.00;;;17.40;99.90;;;;;;21068271;28;20028;-46
2023/06/07 11:56:43;;;;;;;14.27;10.25;;;16.90;99.90;;;;;;21068038;28;20387;-49
2023/06/07 12:06:48;;;;;;;10.75;9.65;;;16.10;99.90;;;;;;21067107;28;20422;-51
2023/06/07 12:16:50;;;;;;;11.13;9.95;;;15.30;99.90;;;;;;21066608;28;20040;-48
2023/06/07 12:26:56;;;;;;;9.02;7.88;;;14.90;99.90;;;;;;21066200;28;20032;-52
2023/06/07 12:36:58;;;;;;;7.22;6.40;;;14.90;99.90;;;;;;21077932;28;20040;-45
2023/06/07 12:46:59;;;;;;;8.23;7.32;;;14.90;99.90;;;;;;21081336;28;20473;-47
2023/06/07 12:57:01;;;;;;;7.07;6.38;;;15.50;99.90;;;;;;21081729;28;20043;-50
2023/06/07 13:07:03;;;;;;;8.13;6.60;;;15.70;99.90;;;;;;21079387;28;20044;-53
2023/06/07 13:17:04;;;;;;;13.18;11.68;;;15.00;99.90;;;;;;21080543;28;20032;-49
2023/06/07 13:27:06;;;;;;;13.23;11.82;;;14.40;99.90;;;;;;21079392;28;20036;-46
2023/06/07 13:37:08;;;;;;;16.25;13.23;;;14.20;99.90;;;;;;21078555;28;20044;-49
2023/06/07 13:47:09;;;;;;;13.50;12.02;;;14.20;99.90;;;;;;21073176;28;20081;-44
2023/06/07 13:57:11;;;;;;;9.70;7.57;;;14.10;99.90;;;;;;21076811;28;20036;-50
2023/06/07 14:07:12;;;;;;;4.03;3.38;;;14.20;99.90;;;;;;21075038;28;20465;-47
2023/06/07 14:17:14;;;;;;;3.95;3.20;;;13.80;99.90;;;;;;21075485;28;20032;-55
2023/06/07 14:27:16;;;;;;;4.82;2.97;;;13.30;99.90;;;;;;21074756;28;20032;-53
2023/06/07 14:37:17;;;;;;;5.18;3.03;;;13.40;99.90;;;;;;21074347;28;20056;-54
2023/06/07 14:47:19;;;;;;;3.65;3.00;;;13.60;99.90;;;;;;21073162;28;20315;-55
2023/06/07 14:57:23;;;;;;;5.88;4.22;;;13.20;99.90;;;;;;21071982;28;20039;-54
2023/06/07 15:07:25;;;;;;;8.38;5.88;;;12.80;99.90;;;;;;21071630;28;20039;-44
2023/06/07 15:17:26;;;;;;;6.35;5.30;;;12.50;99.90;;;;;;21071172;28;20058;-46
2023/06/07 15:27:28;;;;;;;8.13;6.85;;;12.00;99.90;;;;;;21070017;28;20035;-54
2023/06/07 15:37:30;;;;;;;7.38;6.55;;;11.80;99.90;;;;;;21069419;28;20104;-51
2023/06/07 15:47:31;;;;;;;7.25;6.35;;;11.80;99.90;;;;;;21068558;28;20349;-51
2023/06/07 15:57:33;;;;;;;9.15;7.07;;;11.70;99.90;;;;;;21068302;28;20040;-53
2023/06/07 16:07:36;;;;;;;12.63;9.10;;;11.70;99.90;;;;;;21065527;28;20028;-53
2023/06/07 16:17:38;;;;;;;16.08;9.82;;;11.70;99.90;;;;;;21070091;28;20545;-51
2023/06/07 16:27:39;;;;;;;10.60;8.10;;;11.70;99.90;;;;;;21065863;28;20074;-51
2023/06/07 16:37:41;;;;;;;11.02;7.70;;;11.70;99.90;;;;;;21065355;28;20044;-50
2023/06/07 16:47:43;;;;;;;15.18;12.00;;;11.60;99.90;;;;;;21065504;28;20392;-45
2023/06/07 16:57:44;;;;;;;18.05;14.85;;;11.80;99.90;;;;;;21065466;28;20040;-53
2023/06/07 17:07:46;;;;;;;11.57;8.60;;;12.20;99.90;;;;;;21065110;28;20039;-48
2023/06/07 17:17:47;;;;;;;6.75;4.43;;;12.80;99.90;;;;;;21063440;28;20035;-53
2023/06/07 17:27:49;;;;;;;8.82;4.35;;;12.90;99.90;;;;;;21079757;28;20051;-51
2023/06/07 17:37:51;;;;;;;9.50;5.88;;;12.50;99.90;;;;;;21076753;28;20109;-54
2023/06/07 17:47:53;;;;;;;5.22;4.47;;;12.00;99.90;;;;;;21078125;28;20040;-48
2023/06/07 17:57:55;;;;;;;5.60;4.20;;;11.50;99.90;;;;;;21077294;28;20032;-50
2023/06/07 18:07:57;;;;;;;4.72;3.80;;;11.00;99.90;;;;;;21077065;28;20036;-51
2023/06/07 18:17:58;;;;;;;6.63;5.00;;;10.50;99.90;;;;;;21075781;28;20473;-44
2023/06/07 18:28:00;;;;;;;7.28;5.70;;;10.20;99.90;;;;;;21075029;28;20035;-51
2023/06/07 18:38:02;;;;;;;8.10;5.03;;;10.00;99.90;;;;;;21072259;28;20040;-51
2023/06/07 18:48:04;;;;;;;9.40;5.13;;;9.90;99.90;;;;;;21069837;28;20032;-49
2023/06/07 18:58:10;;;;;;;6.30;4.60;;;9.70;99.90;;;;;;21072459;28;20081;-49
2023/06/07 19:08:12;;;;;;;9.60;4.85;;;9.60;99.90;;;;;;21054198;28;20028;-48
2023/06/07 19:18:14;;;;;;;5.50;4.45;;;9.40;99.90;;;;;;21070759;28;20439;-51
2023/06/07 19:28:15;;;;;;;8.68;4.32;;;9.20;99.90;;;;;;21070197;28;20389;-49
2023/06/07 19:38:17;;;;;;;5.63;4.10;;;9.20;99.90;;;;;;21067387;28;20040;-45
2023/06/07 19:48:18;;;;;;;7.35;4.53;;;9.10;99.90;;;;;;21068316;28;20032;-48
2023/06/07 19:58:20;;;;;;;6.30;3.97;;;9.10;99.90;;;;;;21067874;28;20028;-52
2023/06/07 20:08:22;;;;;;;4.50;3.70;;;8.90;99.90;;;;;;21067859;28;20032;-45
2023/06/07 20:18:24;;;;;;;7.00;3.90;;;9.00;99.90;;;;;;21066818;28;20542;-43
2023/06/07 20:28:26;;;;;;;4.63;3.72;;;8.90;99.90;;;;;;21066403;28;20047;-47
2023/06/07 20:38:28;;;;;;;6.13;4.40;;;8.80;99.90;;;;;;21066041;28;20048;-47
2023/06/07 20:48:30;;;;;;;5.03;4.40;;;8.90;99.90;;;;;;21065587;28;20032;-44
2023/06/07 20:58:31;;;;;;;5.72;3.65;;;8.70;99.90;;;;;;21077449;28;20032;-53
2023/06/07 21:08:35;;;;;;;6.55;4.30;;;8.80;99.90;;;;;;21081764;28;20044;-49
2023/06/07 21:18:37;;;;;;;6.25;4.28;;;8.80;99.90;;;;;;21080474;28;20032;-43
2023/06/07 21:28:38;;;;;;;7.25;4.50;;;8.70;99.90;;;;;;21079608;28;20040;-47
2023/06/07 21:38:40;;;;;;;5.75;5.00;;;8.60;99.90;;;;;;21079569;28;20093;-44
2023/06/07 21:48:43;;;;;;;7.18;5.10;;;8.60;99.90;;;;;;21060027;28;20133;-46
2023/06/07 21:58:44;;;;;;;8.15;5.50;;;8.60;99.90;;;;;;21077479;28;20395;-45
2023/06/07 22:08:46;;;;;;;8.07;5.07;;;8.60;99.90;;;;;;21076433;28;20028;-45
2023/06/07 22:18:49;;;;;;;7.30;5.28;;;8.60;99.90;;;;;;21075496;28;20032;-49
2023/06/07 22:28:51;;;;;;;5.25;4.50;;;8.60;99.90;;;;;;21074951;28;20101;-50
2023/06/07 22:38:52;;;;;;;7.22;5.35;;;8.70;99.90;;;;;;21074046;28;20040;-54
2023/06/07 22:48:57;;;;;;;6.78;5.13;;;8.90;99.90;;;;;;21073432;28;20440;-44
2023/06/07 22:59:00;;;;;;;7.80;4.65;;;9.10;99.90;;;;;;21072381;28;20032;-50
2023/06/07 23:09:02;;;;;;;6.22;3.67;;;9.30;99.90;;;;;;21071944;28;20020;-54
2023/06/07 23:19:04;;;;;;;4.78;4.00;;;9.40;99.90;;;;;;21070371;28;20032;-50
2023/06/07 23:29:06;;;;;;;5.53;3.95;;;9.40;99.90;;;;;;21070162;28;20069;-51
2023/06/07 23:39:07;;;;;;;5.20;4.07;;;9.30;99.90;;;;;;21069523;28;20047;-45
2023/06/07 23:49:10;;;;;;;4.45;3.88;;;9.20;99.90;;;;;;21050562;28;20085;-52
2023/06/07 23:59:11;;;;;;;4.28;3.78;;;9.10;99.90;;;;;;21068219;28;20040;-47
